Time;durP1;ratioP1;P1;durP2;ratioP2;P2;SDS_P1;SDS_P2;PMS_P1;PMS_P2;Temp;Humidity;BMP_temperature;BMP_pressure;BME280_temperature;BME280_humidity;BME280_pressure;Samples;Min_cycle;Max_cycle;Signal;HPM_P1;HPM_P2
2023/05/25 00:01:08;;;;;;;5.03;3.17;;;;;;;17.18;100.00;100347.25;5079347;28;20064;-66
2023/05/25 00:03:34;;;;;;;3.15;1.95;;;;;;;17.33;100.00;100342.44;5085482;28;20044;-66
2023/05/25 00:06:00;;;;;;;3.10;1.95;;;;;;;17.61;100.00;100377.00;5085451;28;20032;-67
2023/05/25 00:08:26;;;;;;;9.80;2.92;;;;;;;17.63;100.00;100373.38;5085459;28;20032;-66
2023/05/25 00:10:52;;;;;;;4.38;2.47;;;;;;;17.36;100.00;100380.34;5085608;28;20122;-66
2023/05/25 00:13:17;;;;;;;5.72;2.42;;;;;;;16.77;100.00;100312.13;5085463;28;20052;-66
2023/05/25 00:15:43;;;;;;;5.65;2.47;;;;;;;17.34;100.00;100368.03;5084109;28;20046;-67
2023/05/25 00:18:08;;;;;;;3.25;2.28;;;;;;;16.98;100.00;100376.13;5083593;28;20024;-67
2023/05/25 00:20:34;;;;;;;4.32;2.78;;;;;;;17.01;100.00;100368.06;5081509;28;20036;-65
2023/05/25 00:23:01;;;;;;;4.20;1.95;;;;;;;16.89;100.00;100366.63;5085270;28;20125;-65
2023/05/25 00:25:27;;;;;;;4.05;2.20;;;;;;;17.07;100.00;100359.97;5085631;28;20040;-66
2023/05/25 00:27:52;;;;;;;4.22;2.33;;;;;;;17.28;100.00;100359.34;5085366;28;20043;-67
2023/05/25 00:30:18;;;;;;;4.05;2.63;;;;;;;17.26;100.00;100358.53;5085435;28;20447;-66
2023/05/25 00:32:43;;;;;;;4.55;2.28;;;;;;;17.19;100.00;100350.78;5085018;28;20036;-66
2023/05/25 00:35:09;;;;;;;4.90;2.50;;;;;;;17.06;100.00;100342.28;5084880;28;20036;-65
2023/05/25 00:37:34;;;;;;;6.43;1.70;;;;;;;17.24;100.00;100352.38;5084916;28;20036;-66
2023/05/25 00:40:00;;;;;;;2.72;1.90;;;;;;;16.96;100.00;100352.28;5085101;28;20059;-65
2023/05/25 00:42:26;;;;;;;7.20;2.70;;;;;;;17.12;100.00;100350.09;5075422;28;21164;-67
2023/05/25 00:44:52;;;;;;;6.47;3.20;;;;;;;16.94;100.00;100306.41;5075827;28;20035;-67
2023/05/25 00:47:18;;;;;;;4.53;2.60;;;;;;;16.99;100.00;100336.28;5078292;28;20044;-66
2023/05/25 00:49:44;;;;;;;3.17;2.17;;;;;;;16.99;100.00;100330.13;5071978;28;20111;-65
2023/05/25 00:52:11;;;;;;;3.53;2.13;;;;;;;16.90;100.00;100331.25;5081036;28;20139;-65
2023/05/25 00:54:37;;;;;;;8.20;2.70;;;;;;;17.07;100.00;100352.00;5087782;28;20032;-66
2023/05/25 00:57:05;;;;;;;4.57;2.60;;;;;;;17.24;100.00;100344.44;5090053;28;20048;-66
2023/05/25 00:59:43;;;;;;;8.32;3.22;;;;;;;17.19;100.00;100333.09;5086032;28;20036;-66
2023/05/25 01:02:10;;;;;;;4.15;3.08;;;;;;;17.13;100.00;100327.09;5071042;28;20123;-65
2023/05/25 01:04:45;;;;;;;5.53;2.75;;;;;;;16.83;100.00;100353.53;5085349;28;20032;-66
2023/05/25 01:07:16;;;;;;;4.00;2.08;;;;;;;17.00;100.00;100353.09;5088603;28;20028;-66
2023/05/25 01:09:44;;;;;;;3.15;2.33;;;;;;;17.07;100.00;100336.97;5088541;28;20024;-65
2023/05/25 01:12:11;;;;;;;4.10;2.80;;;;;;;17.20;100.00;100357.81;5087143;28;20090;-66
2023/05/25 01:14:39;;;;;;;6.05;3.25;;;;;;;16.89;100.00;100356.00;5072051;28;20096;-65
2023/05/25 01:17:05;;;;;;;5.47;3.13;;;;;;;16.93;100.00;100351.47;5086059;28;20052;-66
2023/05/25 01:19:32;;;;;;;4.00;2.30;;;;;;;16.90;100.00;100325.06;5080052;28;20543;-66
2023/05/25 01:22:06;;;;;;;4.80;2.97;;;;;;;17.01;100.00;100349.50;5061259;28;20024;-67
2023/05/25 01:24:54;;;;;;;6.18;2.80;;;;;;;17.05;100.00;100354.69;5077087;28;20028;-67
2023/05/25 01:27:20;;;;;;;3.38;1.98;;;;;;;16.75;100.00;100356.34;5087763;28;20036;-67
2023/05/25 01:29:47;;;;;;;5.05;2.72;;;;;;;16.55;100.00;100337.44;5087477;28;20050;-65
2023/05/25 01:32:13;;;;;;;9.15;3.10;;;;;;;16.75;100.00;100343.09;5087717;28;20105;-66
2023/05/25 01:34:42;;;;;;;4.40;2.45;;;;;;;16.90;100.00;100331.25;5088017;28;20111;-66
2023/05/25 01:37:07;;;;;;;5.63;3.05;;;;;;;17.00;100.00;100342.47;5088380;28;20080;-66
2023/05/25 01:39:33;;;;;;;3.67;2.55;;;;;;;16.75;100.00;100334.28;5074209;28;20028;-65
2023/05/25 01:41:58;;;;;;;4.32;3.03;;;;;;;16.65;100.00;100323.06;5074367;28;20032;-67
2023/05/25 01:44:25;;;;;;;4.03;2.70;;;;;;;16.69;100.00;100324.69;5085206;28;20024;-67
2023/05/25 01:47:17;;;;;;;4.93;3.72;;;;;;;16.38;100.00;100333.44;5085645;28;20028;-67
2023/05/25 01:49:59;;;;;;;5.55;2.95;;;;;;;16.57;100.00;100312.66;5087176;28;20131;-65
2023/05/25 01:52:55;;;;;;;3.45;2.70;;;;;;;16.81;100.00;100334.13;5087508;28;20039;-67
2023/05/25 01:55:21;;;;;;;3.83;2.97;;;;;;;16.58;100.00;100332.94;5000167;28;20054;-67
2023/05/25 01:57:52;;;;;;;4.57;3.22;;;;;;;16.66;100.00;100325.66;4985105;28;20042;-66
2023/05/25 02:00:20;;;;;;;4.75;2.85;;;;;;;16.61;100.00;100332.88;4985210;28;20402;-66
2023/05/25 02:02:46;;;;;;;5.38;3.35;;;;;;;16.46;100.00;100320.91;4968591;28;20045;-66
2023/05/25 02:05:12;;;;;;;5.20;3.08;;;;;;;16.66;100.00;100332.75;4984693;28;20046;-65
2023/05/25 02:07:38;;;;;;;6.43;3.17;;;;;;;16.44;100.00;100335.94;4985043;28;20188;-66
2023/05/25 02:10:04;;;;;;;3.80;2.42;;;;;;;16.52;100.00;100322.50;4984405;28;20038;-68
2023/05/25 02:12:30;;;;;;;5.93;3.20;;;;;;;16.55;100.00;100333.03;4984907;28;20140;-68
2023/05/25 02:14:55;;;;;;;3.95;2.53;;;;;;;16.28;100.00;100326.66;4984609;28;20046;-67
2023/05/25 02:17:20;;;;;;;4.53;2.95;;;;;;;16.55;100.00;100341.00;4984990;28;20038;-66
2023/05/25 02:19:48;;;;;;;6.35;3.72;;;;;;;16.26;100.00;100307.28;4984282;28;20050;-67
2023/05/25 02:22:15;;;;;;;6.93;4.38;;;;;;;16.49;100.00;100330.53;4981960;28;20469;-65
2023/05/25 02:24:41;;;;;;;6.13;3.63;;;;;;;16.15;100.00;100304.88;4984767;28;20141;-66
2023/05/25 02:27:06;;;;;;;5.85;3.17;;;;;;;16.54;100.00;100346.31;4972385;28;20034;-66
2023/05/25 02:29:32;;;;;;;4.75;3.10;;;;;;;16.39;100.00;100324.63;4984539;28;20036;-67
2023/05/25 02:31:58;;;;;;;4.88;3.45;;;;;;;16.49;100.00;100342.91;5010818;28;20045;-66
2023/05/25 02:34:23;;;;;;;5.25;3.05;;;;;;;16.46;100.00;100341.22;5044941;28;20029;-67
2023/05/25 02:36:49;;;;;;;6.93;3.58;;;;;;;16.26;100.00;100323.16;5035335;28;20521;-66
2023/05/25 02:39:15;;;;;;;6.28;3.17;;;;;;;16.17;100.00;100339.28;5036805;28;20033;-66
2023/05/25 02:41:41;;;;;;;4.32;2.33;;;;;;;15.98;100.00;100352.09;5046281;28;20037;-67
2023/05/25 02:44:07;;;;;;;3.80;2.17;;;;;;;15.81;100.00;100340.09;5044071;28;20379;-67
2023/05/25 02:46:32;;;;;;;4.95;2.60;;;;;;;15.91;100.00;100350.47;5038283;28;20733;-66
2023/05/25 02:48:58;;;;;;;4.95;3.30;;;;;;;15.99;100.00;100317.66;5027160;28;20110;-66
2023/05/25 02:51:24;;;;;;;6.10;2.70;;;;;;;16.02;100.00;100298.19;5046024;28;20484;-66
2023/05/25 02:53:50;;;;;;;6.25;3.47;;;;;;;16.32;100.00;100360.09;5045447;28;20063;-67
2023/05/25 02:56:16;;;;;;;5.63;3.20;;;;;;;16.40;100.00;100363.41;5063576;28;20615;-67
2023/05/25 02:58:41;;;;;;;5.43;3.08;;;;;;;16.34;100.00;100362.69;5086488;28;20028;-66
2023/05/25 03:01:09;;;;;;;5.45;2.78;;;;;;;16.28;100.00;100349.63;5086532;28;20035;-67
2023/05/25 03:03:37;;;;;;;5.07;2.88;;;;;;;16.31;100.00;100361.00;5085809;28;20110;-67
2023/05/25 03:06:03;;;;;;;3.72;2.63;;;;;;;16.40;100.00;100368.72;5084686;28;20040;-66
2023/05/25 03:08:29;;;;;;;13.88;3.45;;;;;;;16.37;100.00;100382.03;5085996;28;20035;-67
2023/05/25 03:10:55;;;;;;;3.53;2.42;;;;;;;16.36;100.00;100358.22;5066499;28;20810;-67
2023/05/25 03:13:20;;;;;;;3.83;2.10;;;;;;;16.36;100.00;100374.13;5075397;28;20043;-67
2023/05/25 03:15:46;;;;;;;7.60;3.05;;;;;;;16.25;100.00;100371.75;5066637;28;20146;-66
2023/05/25 03:18:11;;;;;;;4.78;2.53;;;;;;;16.06;100.00;100344.84;5086024;28;20023;-66
2023/05/25 03:20:37;;;;;;;6.25;3.70;;;;;;;16.16;100.00;100377.25;5085895;28;20075;-67
2023/05/25 03:23:02;;;;;;;7.70;3.55;;;;;;;16.15;100.00;100378.16;5076812;28;20044;-66
2023/05/25 03:25:28;;;;;;;3.72;3.25;;;;;;;16.43;100.00;100379.22;5078528;28;20028;-67
2023/05/25 03:27:53;;;;;;;4.72;3.05;;;;;;;16.45;100.00;100376.53;5079499;28;20024;-66
2023/05/25 03:30:21;;;;;;;4.30;2.75;;;;;;;16.56;100.00;100378.94;5085431;28;20024;-67
2023/05/25 03:32:46;;;;;;;5.25;3.22;;;;;;;16.48;100.00;100357.06;5085782;28;20085;-65
2023/05/25 03:35:11;;;;;;;7.80;2.28;;;;;;;16.72;100.00;100395.31;5085908;28;20051;-67
2023/05/25 03:37:37;;;;;;;5.53;3.20;;;;;;;16.50;100.00;100401.13;5054960;28;20049;-66
2023/05/25 03:40:03;;;;;;;5.55;2.92;;;;;;;16.42;100.00;100400.47;5085549;28;20036;-66
2023/05/25 03:42:29;;;;;;;3.97;2.92;;;;;;;16.39;100.00;100379.38;5028310;28;20039;-66
2023/05/25 03:44:54;;;;;;;5.07;3.13;;;;;;;16.55;100.00;100399.28;5083218;28;20074;-66
2023/05/25 03:47:20;;;;;;;4.65;3.20;;;;;;;16.70;100.00;100400.66;5032836;28;20071;-66
2023/05/25 03:49:45;;;;;;;5.05;2.53;;;;;;;16.54;100.00;100396.66;5042419;28;20200;-66
2023/05/25 03:52:11;;;;;;;9.13;3.60;;;;;;;16.51;100.00;100372.91;5025320;28;20049;-66
2023/05/25 03:54:36;;;;;;;4.55;2.90;;;;;;;16.90;100.00;100412.53;5041851;28;20039;-68
2023/05/25 03:57:02;;;;;;;5.25;2.40;;;;;;;16.54;100.00;100381.63;5029145;28;20118;-66
2023/05/25 03:59:28;;;;;;;7.15;4.05;;;;;;;16.72;100.00;100424.47;5043558;28;20056;-66
2023/05/25 04:01:54;;;;;;;3.97;2.75;;;;;;;16.85;100.00;100425.91;5051059;28;20041;-66
2023/05/25 04:04:19;;;;;;;7.00;3.13;;;;;;;16.66;100.00;100414.88;5042270;28;20692;-66
2023/05/25 04:06:47;;;;;;;4.63;2.78;;;;;;;17.11;100.00;100430.53;5041943;28;20792;-66
2023/05/25 04:09:14;;;;;;;6.32;3.10;;;;;;;16.74;100.00;100412.91;5041844;28;20069;-66
2023/05/25 04:11:39;;;;;;;4.07;2.28;;;;;;;16.98;100.00;100442.38;5030035;28;20053;-66
2023/05/25 04:14:05;;;;;;;9.35;2.47;;;;;;;17.02;100.00;100444.03;5042140;28;20045;-66
2023/05/25 04:16:31;;;;;;;3.58;1.95;;;;;;;17.03;100.00;100461.69;5036309;28;20032;-66
2023/05/25 04:18:56;;;;;;;3.53;2.00;;;;;;;17.03;100.00;100451.94;5041866;28;20122;-67
2023/05/25 04:21:22;;;;;;;5.57;3.63;;;;;;;16.92;100.00;100408.94;5032997;28;20048;-67
2023/05/25 04:23:48;;;;;;;3.22;2.30;;;;;;;16.97;100.00;100456.53;5044662;28;20045;-66
2023/05/25 04:26:15;;;;;;;5.78;3.78;;;;;;;17.28;100.00;100459.28;5084930;28;20124;-68
2023/05/25 04:28:40;;;;;;;6.25;3.35;;;;;;;17.31;100.00;100461.81;5087002;28;20377;-66
2023/05/25 04:31:07;;;;;;;6.32;4.03;;;;;;;17.13;100.00;100434.00;5070648;28;20499;-68
2023/05/25 04:33:37;;;;;;;5.40;2.85;;;;;;;17.42;100.00;100467.72;5078757;28;20036;-66
2023/05/25 04:36:07;;;;;;;5.35;2.70;;;;;;;17.29;100.00;100455.69;5063798;28;20038;-66
2023/05/25 04:38:33;;;;;;;5.50;3.15;;;;;;;17.13;100.00;100454.34;5088151;28;20036;-67
2023/05/25 04:41:00;;;;;;;5.28;2.92;;;;;;;17.25;100.00;100443.41;5083679;28;20020;-67
2023/05/25 04:43:26;;;;;;;3.90;3.20;;;;;;;17.25;100.00;100457.53;5070658;28;20038;-65
2023/05/25 04:45:53;;;;;;;3.17;2.55;;;;;;;17.63;100.00;100484.81;5081445;28;20036;-65
2023/05/25 04:48:19;;;;;;;5.47;3.13;;;;;;;17.94;100.00;100497.25;5086198;28;20051;-66
2023/05/25 04:50:44;;;;;;;4.53;2.67;;;;;;;18.03;100.00;100474.88;5085645;28;20029;-67
2023/05/25 04:53:10;;;;;;;11.65;3.13;;;;;;;18.40;100.00;100500.31;5077024;28;20681;-66
2023/05/25 04:55:35;;;;;;;4.25;2.45;;;;;;;18.66;100.00;100510.09;5088276;28;20087;-66
2023/05/25 04:58:02;;;;;;;4.90;3.08;;;;;;;18.61;100.00;100509.41;5086225;28;20040;-66
2023/05/25 05:00:27;;;;;;;4.80;2.58;;;;;;;18.22;100.00;100460.13;5088543;28;20027;-65
2023/05/25 05:02:57;;;;;;;6.20;3.85;;;;;;;18.25;100.00;100411.34;5058813;28;20689;-67
2023/05/25 05:05:23;;;;;;;4.32;2.55;;;;;;;19.12;100.00;100522.81;5084505;28;20574;-65
2023/05/25 05:07:48;;;;;;;4.63;3.20;;;;;;;19.36;100.00;100499.84;5087290;28;20111;-66
2023/05/25 05:10:14;;;;;;;5.00;3.45;;;;;;;19.23;100.00;100529.56;5074826;28;20047;-66
2023/05/25 05:12:39;;;;;;;4.25;2.95;;;;;;;19.56;100.00;100500.91;5078285;28;20150;-66
2023/05/25 05:15:05;;;;;;;4.43;2.55;;;;;;;19.73;100.00;100542.94;5087250;28;20107;-66
2023/05/25 05:17:31;;;;;;;4.38;2.97;;;;;;;20.41;100.00;100543.94;5088133;28;20103;-65
2023/05/25 05:19:56;;;;;;;4.32;2.53;;;;;;;20.98;100.00;100539.09;5052733;28;20032;-66
2023/05/25 05:22:26;;;;;;;3.50;2.55;;;;;;;21.25;100.00;100553.06;5087865;28;20420;-66
2023/05/25 05:24:51;;;;;;;6.50;3.08;;;;;;;21.26;100.00;100558.34;5069303;28;20058;-66
2023/05/25 05:27:18;;;;;;;7.55;2.95;;;;;;;21.62;100.00;100512.31;5062944;28;20028;-67
2023/05/25 05:29:43;;;;;;;3.75;2.50;;;;;;;22.32;100.00;100542.16;5075836;28;20040;-65
2023/05/25 05:32:09;;;;;;;6.07;3.58;;;;;;;22.13;100.00;100545.66;5083359;28;20869;-66
2023/05/25 05:34:35;;;;;;;5.90;2.92;;;;;;;22.10;100.00;100564.50;5084793;28;20085;-66
2023/05/25 05:37:00;;;;;;;7.25;2.72;;;;;;;22.10;100.00;100558.25;5058460;28;20478;-65
2023/05/25 05:39:26;;;;;;;6.15;2.90;;;;;;;22.73;100.00;100556.25;5079676;28;20036;-65
2023/05/25 05:41:53;;;;;;;2.85;2.22;;;;;;;22.66;100.00;100570.81;5077336;28;20036;-65
2023/05/25 05:44:22;;;;;;;5.35;2.53;;;;;;;22.81;100.00;100584.44;5073514;28;20148;-65
2023/05/25 05:46:48;;;;;;;3.95;2.75;;;;;;;22.71;100.00;100576.84;5084517;28;20078;-66
2023/05/25 05:49:13;;;;;;;4.45;2.92;;;;;;;22.83;100.00;100580.75;5047810;28;20154;-65
2023/05/25 05:51:38;;;;;;;3.65;2.00;;;;;;;22.39;100.00;100591.72;5086677;28;20424;-66
2023/05/25 05:54:05;;;;;;;4.25;2.60;;;;;;;22.83;100.00;100582.53;5084727;28;20024;-66
2023/05/25 05:56:30;;;;;;;4.25;2.58;;;;;;;22.82;100.00;100562.94;5072960;28;20833;-66
2023/05/25 05:58:56;;;;;;;3.92;2.28;;;;;;;22.20;100.00;100588.16;5075360;28;20036;-67
2023/05/25 06:01:22;;;;;;;2.88;1.98;;;;;;;22.30;100.00;100571.63;5081982;28;20165;-67
2023/05/25 06:03:48;;;;;;;7.57;2.47;;;;;;;22.56;100.00;100580.25;5086486;28;20062;-67
2023/05/25 06:06:14;;;;;;;3.10;1.95;;;;;;;22.54;100.00;100582.13;5086796;28;20079;-68
2023/05/25 06:08:40;;;;;;;6.18;2.13;;;;;;;21.81;100.00;100552.44;5086776;28;20051;-66
2023/05/25 06:11:06;;;;;;;4.13;2.53;;;;;;;22.45;100.00;100590.56;5044723;28;20040;-67
2023/05/25 06:13:32;;;;;;;3.78;2.50;;;;;;;22.20;100.00;100577.44;5086474;28;20055;-65
2023/05/25 06:15:57;;;;;;;4.70;2.33;;;;;;;22.06;100.00;100548.69;5067662;28;20067;-66
2023/05/25 06:18:22;;;;;;;4.78;2.47;;;;;;;22.07;100.00;100550.41;5086708;28;20032;-65
2023/05/25 06:20:48;;;;;;;3.78;1.98;;;;;;;22.50;100.00;100592.09;5086691;28;20490;-67
2023/05/25 06:23:13;;;;;;;5.05;2.35;;;;;;;22.83;100.00;100585.22;5073854;28;20035;-66
2023/05/25 06:25:39;;;;;;;4.30;2.35;;;;;;;23.06;100.00;100586.81;5084899;28;20142;-67
2023/05/25 06:28:05;;;;;;;3.45;1.98;;;;;;;23.25;100.00;100592.09;5073226;28;20157;-66
2023/05/25 06:30:30;;;;;;;7.40;3.15;;;;;;;22.49;100.00;100568.09;5080629;28;20560;-66
2023/05/25 06:32:56;;;;;;;3.80;2.53;;;;;;;22.88;100.00;100573.34;5085960;28;20404;-66
2023/05/25 06:35:22;;;;;;;4.43;2.55;;;;;;;23.16;100.00;100594.31;5085939;28;20035;-65
2023/05/25 06:37:48;;;;;;;4.65;3.30;;;;;;;23.08;100.00;100576.88;5060950;28;20032;-65
2023/05/25 06:40:15;;;;;;;5.03;2.78;;;;;;;23.00;100.00;100589.78;5086143;28;20039;-66
2023/05/25 06:42:41;;;;;;;4.53;2.05;;;;;;;23.20;100.00;100602.19;5084353;28;20055;-66
2023/05/25 06:45:08;;;;;;;3.28;1.73;;;;;;;23.60;100.00;100598.38;5071088;28;20637;-65
2023/05/25 06:47:34;;;;;;;3.60;2.25;;;;;;;23.23;100.00;100570.78;5085494;28;20127;-66
2023/05/25 06:49:59;;;;;;;3.22;1.80;;;;;;;23.13;99.08;100575.75;5082437;28;20393;-66
2023/05/25 06:52:28;;;;;;;3.95;2.33;;;;;;;23.34;100.00;100599.69;5085257;28;20040;-66
2023/05/25 06:54:54;;;;;;;4.25;2.70;;;;;;;22.69;100.00;100583.22;5079761;28;20480;-66
2023/05/25 06:57:20;;;;;;;4.13;2.40;;;;;;;23.12;100.00;100614.13;5074776;28;20493;-66
2023/05/25 06:59:46;;;;;;;8.63;2.28;;;;;;;22.89;100.00;100591.13;5082341;28;20550;-67
2023/05/25 07:02:11;;;;;;;4.13;2.25;;;;;;;23.59;99.68;100615.38;5072842;28;20024;-67
2023/05/25 07:04:37;;;;;;;4.70;3.10;;;;;;;23.09;100.00;100608.94;5081019;28;20115;-65
2023/05/25 07:07:02;;;;;;;3.58;2.22;;;;;;;23.02;100.00;100609.34;5085252;28;20614;-67
2023/05/25 07:09:28;;;;;;;4.63;3.17;;;;;;;22.99;100.00;100609.47;5070382;28;20040;-66
2023/05/25 07:11:53;;;;;;;3.35;2.40;;;;;;;23.42;100.00;100602.00;5081071;28;20109;-68
2023/05/25 07:14:19;;;;;;;13.95;3.67;;;;;;;24.20;97.11;100611.34;5085506;28;20032;-67
2023/05/25 07:16:44;;;;;;;2.92;1.90;;;;;;;24.46;88.86;100617.13;5084678;28;20027;-66
2023/05/25 07:19:10;;;;;;;4.50;2.50;;;;;;;24.58;88.35;100616.47;5074472;28;20859;-66
2023/05/25 07:21:36;;;;;;;4.68;2.33;;;;;;;24.18;91.72;100607.88;5085394;28;20031;-66
2023/05/25 07:24:05;;;;;;;3.65;2.40;;;;;;;23.81;96.70;100617.84;5079257;28;20156;-68
2023/05/25 07:26:31;;;;;;;2.67;1.60;;;;;;;23.72;98.20;100616.50;5078283;28;20515;-66
2023/05/25 07:28:56;;;;;;;3.63;2.10;;;;;;;24.08;94.55;100580.69;5085286;28;20822;-66
2023/05/25 07:31:22;;;;;;;2.85;1.48;;;;;;;24.47;94.56;100618.88;5085322;28;20023;-67
2023/05/25 07:33:48;;;;;;;4.15;2.42;;;;;;;24.35;85.03;100613.22;5066938;28;20618;-67
2023/05/25 07:36:13;;;;;;;4.63;2.47;;;;;;;24.66;80.90;100618.75;5076444;28;20489;-67
2023/05/25 07:38:39;;;;;;;5.28;2.85;;;;;;;25.08;80.37;100582.38;5067098;28;20032;-67
2023/05/25 07:41:05;;;;;;;6.05;3.25;;;;;;;24.84;81.93;100623.06;5082743;28;20653;-67
2023/05/25 07:43:30;;;;;;;4.75;2.38;;;;;;;24.66;82.50;100619.63;5073290;28;20043;-67
2023/05/25 07:45:56;;;;;;;2.17;1.42;;;;;;;25.15;84.96;100621.34;5081013;28;20148;-66
2023/05/25 07:48:21;;;;;;;4.03;2.35;;;;;;;25.15;87.70;100605.25;5071702;28;20140;-66
2023/05/25 07:50:47;;;;;;;4.15;2.38;;;;;;;25.03;85.05;100625.59;5066560;28;20506;-66
2023/05/25 07:53:13;;;;;;;5.18;2.75;;;;;;;24.21;90.07;100623.81;5084490;28;20551;-66
2023/05/25 07:55:38;;;;;;;4.57;1.85;;;;;;;24.71;86.49;100624.72;5062896;28;20051;-66
2023/05/25 07:58:06;;;;;;;3.70;2.08;;;;;;;24.89;85.63;100590.59;5078805;28;20032;-66
2023/05/25 08:00:32;;;;;;;5.07;2.35;;;;;;;25.63;84.21;100614.09;5084143;28;20019;-65
2023/05/25 08:02:57;;;;;;;4.13;2.45;;;;;;;25.52;88.96;100592.34;5077095;28;20497;-67
2023/05/25 08:05:23;;;;;;;5.03;2.50;;;;;;;25.48;81.65;100618.56;5088212;28;20113;-66
2023/05/25 08:07:48;;;;;;;3.10;2.10;;;;;;;25.12;82.93;100613.47;5070621;28;20039;-66
2023/05/25 08:10:14;;;;;;;4.07;1.88;;;;;;;25.50;77.02;100619.34;5089001;28;20440;-65
2023/05/25 08:12:39;;;;;;;2.85;1.85;;;;;;;25.40;63.64;100623.50;5086113;28;20103;-65
2023/05/25 08:15:05;;;;;;;2.42;1.42;;;;;;;25.11;60.70;100607.22;5087785;28;20024;-66
2023/05/25 08:17:31;;;;;;;7.50;2.45;;;;;;;25.70;63.77;100620.81;5086572;28;20028;-66
2023/05/25 08:19:56;;;;;;;3.30;2.13;;;;;;;25.56;69.85;100615.41;5082072;28;20067;-66
2023/05/25 08:22:22;;;;;;;2.65;1.63;;;;;;;24.88;62.74;100596.94;5085150;28;20028;-66
2023/05/25 08:24:47;;;;;;;3.05;2.00;;;;;;;25.31;63.80;100595.38;5088714;28;20043;-67
2023/05/25 08:27:13;;;;;;;2.50;1.52;;;;;;;25.85;63.15;100602.91;5088582;28;20086;-66
2023/05/25 08:29:38;;;;;;;2.70;1.83;;;;;;;26.33;62.01;100593.66;5042673;28;20048;-67
2023/05/25 08:32:04;;;;;;;4.80;2.00;;;;;;;26.18;61.20;100607.22;5086971;28;20039;-66
2023/05/25 08:34:29;;;;;;;2.90;1.95;;;;;;;26.14;62.63;100616.44;5088357;28;20096;-66
2023/05/25 08:36:58;;;;;;;2.83;1.80;;;;;;;26.36;59.15;100605.19;5081427;28;20028;-66
2023/05/25 08:39:23;;;;;;;3.78;2.22;;;;;;;27.07;59.65;100598.84;5084894;28;20040;-67
2023/05/25 08:41:50;;;;;;;4.75;2.17;;;;;;;27.39;58.92;100609.34;5079170;28;20058;-66
2023/05/25 08:44:16;;;;;;;3.95;2.42;;;;;;;26.97;59.49;100598.56;5085506;28;20032;-66
2023/05/25 08:46:42;;;;;;;4.38;1.92;;;;;;;27.36;57.81;100611.25;5075625;28;20094;-66
2023/05/25 08:49:11;;;;;;;3.58;2.17;;;;;;;27.88;58.02;100606.88;5080156;28;20122;-66
2023/05/25 08:51:40;;;;;;;2.78;1.65;;;;;;;28.26;55.96;100603.34;5087927;28;20032;-67
2023/05/25 08:54:08;;;;;;;2.15;1.33;;;;;;;28.55;55.56;100605.81;5082170;28;20036;-66
2023/05/25 08:56:43;;;;;;;5.10;1.90;;;;;;;27.39;52.61;100579.69;5068925;28;20070;-65
2023/05/25 08:59:27;;;;;;;2.90;1.73;;;;;;;27.03;55.59;100600.88;5064217;28;20125;-66
2023/05/25 09:02:01;;;;;;;4.40;2.65;;;;;;;27.67;53.44;100594.84;5084069;28;20054;-65
2023/05/25 09:04:28;;;;;;;3.03;2.05;;;;;;;27.76;51.68;100580.72;5081018;28;20107;-67
2023/05/25 09:06:54;;;;;;;8.27;2.30;;;;;;;27.65;50.83;100592.28;5087500;28;20039;-67
2023/05/25 09:09:20;;;;;;;7.20;2.78;;;;;;;27.86;54.01;100549.50;5069031;28;20096;-67
2023/05/25 09:11:46;;;;;;;4.10;2.20;;;;;;;29.03;50.22;100586.94;5087439;28;20031;-66
2023/05/25 09:14:12;;;;;;;5.32;2.67;;;;;;;29.16;48.15;100601.31;5086703;28;20028;-67
2023/05/25 09:16:39;;;;;;;4.80;2.38;;;;;;;27.83;49.56;100521.84;5087105;28;20038;-67
2023/05/25 09:19:04;;;;;;;2.78;1.95;;;;;;;29.02;48.88;100587.94;5087258;28;20081;-66
2023/05/25 09:21:30;;;;;;;2.20;1.45;;;;;;;28.80;49.93;100586.84;5083883;28;20031;-65
2023/05/25 09:23:56;;;;;;;4.18;2.28;;;;;;;28.48;49.36;100585.63;5084510;28;20040;-68
2023/05/25 09:26:22;;;;;;;3.60;2.30;;;;;;;29.09;48.34;100546.00;5060056;28;20794;-67
2023/05/25 09:28:48;;;;;;;5.10;2.42;;;;;;;27.49;50.01;100588.91;5087128;28;20103;-67
2023/05/25 09:31:14;;;;;;;4.95;3.45;;;;;;;28.67;49.40;100580.59;5086625;28;20118;-67
2023/05/25 09:33:40;;;;;;;7.63;2.55;;;;;;;28.67;47.56;100577.06;5086680;28;20044;-67
2023/05/25 09:36:06;;;;;;;6.65;3.20;;;;;;;28.36;49.60;100579.25;5080100;28;20392;-67
2023/05/25 09:38:32;;;;;;;9.48;2.85;;;;;;;29.04;51.33;100570.63;5082106;28;20039;-66
2023/05/25 09:40:58;;;;;;;3.15;2.03;;;;;;;29.39;48.17;100555.47;5078286;28;20142;-66
2023/05/25 09:43:23;;;;;;;5.13;2.08;;;;;;;29.13;48.46;100571.81;5086324;28;20378;-67
2023/05/25 09:45:51;;;;;;;6.70;1.92;;;;;;;29.31;49.11;100544.38;5059342;28;20037;-67
2023/05/25 09:48:17;;;;;;;4.45;2.47;;;;;;;29.75;49.12;100553.63;5086763;28;20031;-66
2023/05/25 09:50:43;;;;;;;3.78;2.00;;;;;;;29.95;48.29;100546.66;5086733;28;20111;-67
2023/05/25 09:53:09;;;;;;;3.88;2.42;;;;;;;28.99;47.57;100553.91;5067651;28;20028;-66
2023/05/25 09:55:36;;;;;;;3.97;2.35;;;;;;;29.39;47.96;100512.22;5079943;28;20483;-67
2023/05/25 09:58:01;;;;;;;6.30;2.00;;;;;;;29.03;50.49;100530.22;5081206;28;20043;-67
2023/05/25 10:00:27;;;;;;;3.40;2.08;;;;;;;28.38;48.88;100550.31;5081714;28;20048;-65
2023/05/25 10:02:53;;;;;;;3.97;2.63;;;;;;;29.21;46.70;100533.41;5080051;28;20036;-66
2023/05/25 10:05:18;;;;;;;4.28;2.38;;;;;;;30.26;47.14;100539.66;5086857;28;20044;-68
2023/05/25 10:07:45;;;;;;;6.40;2.90;;;;;;;30.74;44.93;100533.91;5086371;28;20246;-67
2023/05/25 10:10:15;;;;;;;3.00;2.00;;;;;;;30.65;45.26;100532.00;5085250;28;20056;-67
2023/05/25 10:12:42;;;;;;;4.72;2.65;;;;;;;29.97;43.91;100529.31;5085961;28;20124;-66
2023/05/25 10:15:10;;;;;;;3.00;2.10;;;;;;;29.17;45.35;100538.19;5083395;28;20040;-67
2023/05/25 10:17:42;;;;;;;3.40;2.10;;;;;;;27.96;46.02;100539.78;5085947;28;20634;-66
2023/05/25 10:20:09;;;;;;;2.22;1.50;;;;;;;29.15;44.32;100523.03;5073775;28;20787;-66
2023/05/25 10:23:08;;;;;;;2.95;1.88;;;;;;;28.76;45.10;100520.50;5080967;28;20036;-66
2023/05/25 10:25:39;;;;;;;3.83;2.40;;;;;;;28.66;43.66;100521.28;5000743;28;20439;-68
2023/05/25 10:28:17;;;;;;;4.05;1.98;;;;;;;27.93;44.36;100523.81;5003484;28;20045;-68
2023/05/25 10:30:43;;;;;;;6.07;1.85;;;;;;;27.36;46.42;100521.47;5002788;28;20050;-67
2023/05/25 10:33:09;;;;;;;3.03;1.95;;;;;;;26.71;46.75;100496.16;5004367;28;20168;-67
2023/05/25 10:35:37;;;;;;;4.35;1.42;;;;;;;27.60;46.13;100515.34;5013255;28;20472;-66
2023/05/25 10:38:03;;;;;;;4.65;2.60;;;;;;;28.88;44.41;100502.53;5000795;28;20053;-66
2023/05/25 10:40:29;;;;;;;3.38;2.17;;;;;;;29.57;44.48;100475.63;5002761;28;20030;-66
2023/05/25 10:42:54;;;;;;;3.85;2.17;;;;;;;29.53;45.27;100473.28;4994806;28;20098;-66
2023/05/25 10:45:21;;;;;;;3.78;1.77;;;;;;;29.25;42.77;100456.50;5000649;28;20261;-68
2023/05/25 10:47:47;;;;;;;3.42;2.15;;;;;;;29.95;43.23;100481.72;5002695;28;20466;-67
2023/05/25 10:50:26;;;;;;;4.88;2.45;;;;;;;30.56;43.11;100481.28;5002849;28;20174;-67
2023/05/25 10:53:11;;;;;;;2.78;1.75;;;;;;;30.11;41.55;100449.72;5000228;28;20069;-67
2023/05/25 10:55:48;;;;;;;8.20;2.47;;;;;;;30.67;42.78;100465.84;5001688;28;20057;-67
2023/05/25 10:58:15;;;;;;;2.70;1.98;;;;;;;30.85;42.64;100465.31;5002567;28;20072;-66
2023/05/25 11:00:42;;;;;;;3.88;2.08;;;;;;;30.74;41.66;100477.00;5002615;28;20124;-67
2023/05/25 11:03:08;;;;;;;2.75;1.65;;;;;;;29.05;40.97;100482.31;5081429;28;20369;-67
2023/05/25 11:05:37;;;;;;;4.10;2.35;;;;;;;28.01;42.32;100473.84;5081119;28;20068;-67
2023/05/25 11:08:13;;;;;;;3.08;1.95;;;;;;;27.01;44.21;100483.44;5084002;28;20089;-67
2023/05/25 11:10:48;;;;;;;2.58;1.50;;;;;;;26.99;44.05;100444.97;5073685;28;20380;-66
2023/05/25 11:13:36;;;;;;;3.50;2.20;;;;;;;27.22;44.29;100479.28;5076207;28;20028;-67
2023/05/25 11:16:18;;;;;;;5.20;1.92;;;;;;;26.45;46.33;100409.00;5079408;28;20059;-66
2023/05/25 11:18:58;;;;;;;2.13;1.63;;;;;;;25.90;48.50;100461.88;5085990;28;20051;-68